Catrine, United Kingdom
Current Conditions -  °F | °C
As of 10:20 PM on Monday 20 Oct 2014 (Local Time) from EGPK Reporting Station
Light Rain Light Rain  
Wind Chill: 55°   Ceiling: Unl
Heat Index: 55°   Visibility: 6mi
Dew Point: 50°   Wind: 20mph
Humidity: 82%   Direction: 180°S
Pressure: 29.47"   Gusts: NA
Location:  55.5°N, 4.33°W
Report Text: EGPK 202120Z 18017KT 9999 -RA FEW008 SCT029 13/10 Q0998
Loading
Personal Weather Stations






























Interactive Weather Map
Tropical Storm Tracking
New forecast layout! Learn more

10-Day Weather Forecast

Advertisements
Track Severe Weather on mobile